createdAt,value
2023-05-17T00:00:42.720Z,100.00
2023-05-17T00:03:11.964Z,100.00
2023-05-17T00:05:41.356Z,100.00
2023-05-17T00:08:10.236Z,100.00
2023-05-17T00:10:39.139Z,100.00
2023-05-17T00:13:08.002Z,100.00
2023-05-17T00:15:38.861Z,100.00
2023-05-17T00:18:07.956Z,100.00
2023-05-17T00:20:36.852Z,100.00
2023-05-17T00:23:05.743Z,100.00
2023-05-17T00:25:34.541Z,100.00
2023-05-17T00:28:03.392Z,100.00
2023-05-17T00:30:32.256Z,99.53
2023-05-17T00:33:02.500Z,100.00
2023-05-17T00:35:31.520Z,99.89
2023-05-17T00:38:00.365Z,99.40
2023-05-17T00:40:29.445Z,99.37
2023-05-17T00:42:58.236Z,99.49
2023-05-17T00:45:27.226Z,99.10
2023-05-17T00:47:56.391Z,98.99
2023-05-17T00:50:26.883Z,98.86
2023-05-17T00:52:57.226Z,98.74
2023-05-17T00:55:26.451Z,98.42
2023-05-17T00:57:56.258Z,98.34
2023-05-17T01:00:25.059Z,97.91
2023-05-17T01:02:54.110Z,97.84
2023-05-17T01:05:23.090Z,97.59
2023-05-17T01:07:53.372Z,97.86
2023-05-17T01:10:22.847Z,97.80
2023-05-17T01:13:05.284Z,97.36
2023-05-17T01:15:46.983Z,97.08
2023-05-17T01:18:23.556Z,97.03
2023-05-17T01:20:56.607Z,96.70
2023-05-17T01:23:46.119Z,96.95
2023-05-17T01:26:22.633Z,96.67
2023-05-17T01:28:59.074Z,96.86
2023-05-17T01:31:29.484Z,96.81
2023-05-17T01:33:59.134Z,97.07
2023-05-17T01:36:30.009Z,97.15
2023-05-17T01:39:00.923Z,96.86
2023-05-17T01:41:36.019Z,97.34
2023-05-17T01:44:14.427Z,97.06
2023-05-17T01:46:44.553Z,97.33
2023-05-17T01:49:19.674Z,97.04
2023-05-17T01:51:52.588Z,97.50
2023-05-17T01:54:30.087Z,97.40
2023-05-17T01:57:01.904Z,97.24
2023-05-17T01:59:35.595Z,97.44
2023-05-17T02:02:09.204Z,96.98
2023-05-17T02:04:38.584Z,97.47
2023-05-17T02:07:07.376Z,97.51
2023-05-17T02:09:36.358Z,97.56
2023-05-17T02:12:05.408Z,97.20
2023-05-17T02:14:37.740Z,97.00
2023-05-17T02:17:07.650Z,97.38
2023-05-17T02:19:36.549Z,96.70
2023-05-17T02:22:05.642Z,97.14
2023-05-17T02:24:34.513Z,97.20
2023-05-17T02:27:03.772Z,96.77
2023-05-17T02:29:33.824Z,97.08
2023-05-17T02:32:04.040Z,97.06
2023-05-17T02:34:32.923Z,96.67
2023-05-17T02:37:01.676Z,96.96
2023-05-17T02:39:30.672Z,97.02
2023-05-17T02:41:59.628Z,96.76
2023-05-17T02:44:28.548Z,97.00
2023-05-17T02:46:57.364Z,96.94
2023-05-17T02:49:28.073Z,96.73
2023-05-17T02:51:56.962Z,96.38
2023-05-17T02:54:25.817Z,96.48
2023-05-17T02:56:54.896Z,96.66
2023-05-17T02:59:24.134Z,96.59
2023-05-17T03:01:52.924Z,96.04
2023-05-17T03:04:21.869Z,96.21
2023-05-17T03:06:52.356Z,96.42
2023-05-17T03:09:21.905Z,95.97
2023-05-17T03:11:52.565Z,96.27
2023-05-17T03:14:28.980Z,96.06
2023-05-17T03:16:57.892Z,95.81
2023-05-17T03:19:26.933Z,95.24
2023-05-17T03:21:58.177Z,95.19
2023-05-17T03:24:28.000Z,94.91
2023-05-17T03:26:56.915Z,94.91
2023-05-17T03:29:25.794Z,94.76
2023-05-17T03:31:55.186Z,94.80
2023-05-17T03:34:24.412Z,94.27
2023-05-17T03:36:53.565Z,94.38
2023-05-17T03:39:23.772Z,94.43
2023-05-17T03:41:52.765Z,94.19
2023-05-17T03:44:23.797Z,93.75
2023-05-17T03:46:54.265Z,93.43
2023-05-17T03:49:25.055Z,93.22
2023-05-17T03:51:55.447Z,93.00
2023-05-17T03:54:25.862Z,92.81
2023-05-17T03:56:54.721Z,92.74
2023-05-17T03:59:23.527Z,92.41
2023-05-17T04:01:52.788Z,92.38
2023-05-17T04:04:21.641Z,91.84
2023-05-17T04:06:50.581Z,91.90
2023-05-17T04:09:20.147Z,91.73
2023-05-17T04:11:50.139Z,91.20
2023-05-17T04:14:19.864Z,91.23
2023-05-17T04:16:48.820Z,90.86
2023-05-17T04:19:17.777Z,91.03
2023-05-17T04:21:46.798Z,90.95
2023-05-17T04:24:15.701Z,90.69
2023-05-17T04:26:44.642Z,90.46
2023-05-17T04:29:19.040Z,90.41
2023-05-17T04:31:49.927Z,90.33
2023-05-17T04:34:19.511Z,89.71
2023-05-17T04:36:48.688Z,89.52
2023-05-17T04:39:17.642Z,89.61
2023-05-17T04:41:46.739Z,89.14
2023-05-17T04:44:20.732Z,88.30
2023-05-17T04:46:49.759Z,88.67
2023-05-17T04:49:19.057Z,88.48
2023-05-17T04:51:48.084Z,88.45
2023-05-17T04:54:16.932Z,88.11
2023-05-17T04:56:46.040Z,88.50
2023-05-17T04:59:24.015Z,88.15
2023-05-17T05:01:52.968Z,87.92
2023-05-17T05:04:21.839Z,88.04
2023-05-17T05:06:51.610Z,87.88
2023-05-17T05:09:24.096Z,88.06
2023-05-17T05:11:53.257Z,87.69
2023-05-17T05:14:23.771Z,87.50
2023-05-17T05:16:53.422Z,87.35
2023-05-17T05:19:22.352Z,87.01
2023-05-17T05:21:53.425Z,87.46
2023-05-17T05:24:22.320Z,87.21
2023-05-17T05:26:51.207Z,87.03
2023-05-17T05:29:21.750Z,86.98
2023-05-17T05:31:52.094Z,86.41
2023-05-17T05:34:21.048Z,86.50
2023-05-17T05:36:51.037Z,86.00
2023-05-17T05:39:19.878Z,86.11
2023-05-17T05:41:48.800Z,85.98
2023-05-17T05:44:17.861Z,85.79
2023-05-17T05:46:46.766Z,85.54
2023-05-17T05:49:17.553Z,85.34
2023-05-17T05:51:46.450Z,85.17
2023-05-17T05:54:16.563Z,85.15
2023-05-17T05:56:45.275Z,84.84
2023-05-17T05:59:16.328Z,85.12
2023-05-17T06:01:46.986Z,84.71
2023-05-17T06:04:15.920Z,84.62
2023-05-17T06:06:46.309Z,84.37
2023-05-17T06:09:15.291Z,84.25
2023-05-17T06:11:44.061Z,84.21
2023-05-17T06:14:12.978Z,83.69
2023-05-17T06:16:41.626Z,83.72
2023-05-17T06:19:10.600Z,83.88
2023-05-17T06:21:39.293Z,83.52
2023-05-17T06:24:10.182Z,83.34
2023-05-17T06:26:41.893Z,83.10
2023-05-17T06:29:10.948Z,83.17
2023-05-17T06:31:39.708Z,82.85
2023-05-17T06:34:08.513Z,83.06
2023-05-17T06:36:38.601Z,82.96
2023-05-17T06:39:09.538Z,83.08
2023-05-17T06:41:38.297Z,83.04
2023-05-17T06:44:07.702Z,83.35
2023-05-17T06:46:36.534Z,83.18
2023-05-17T06:49:08.297Z,83.05
2023-05-17T06:51:37.218Z,83.21
2023-05-17T06:54:05.998Z,82.88
2023-05-17T06:56:36.138Z,82.99
2023-05-17T07:02:14.511Z,83.23
2023-05-17T07:04:43.937Z,83.22
2023-05-17T07:07:12.913Z,83.04
2023-05-17T07:09:41.662Z,82.66
2023-05-17T07:12:11.974Z,82.80
2023-05-17T07:14:40.895Z,82.47
2023-05-17T07:17:09.744Z,82.46
2023-05-17T07:19:38.724Z,82.76
2023-05-17T07:22:07.695Z,82.35
2023-05-17T07:24:36.627Z,82.56
2023-05-17T07:27:05.626Z,82.36
2023-05-17T07:29:36.205Z,81.96
2023-05-17T07:32:05.496Z,81.59
2023-05-17T07:34:34.340Z,81.19
2023-05-17T07:37:03.081Z,81.07
2023-05-17T07:39:31.948Z,80.76
2023-05-17T07:42:00.652Z,80.45
2023-05-17T07:44:29.889Z,80.34
2023-05-17T07:47:00.323Z,80.41
2023-05-17T07:49:29.387Z,79.62
2023-05-17T07:51:58.269Z,79.62
2023-05-17T07:54:29.419Z,79.69
2023-05-17T07:56:59.956Z,79.20
2023-05-17T07:59:29.756Z,78.86
2023-05-17T08:01:59.886Z,78.97
2023-05-17T08:04:28.780Z,78.61
2023-05-17T08:06:58.008Z,78.07
2023-05-17T08:09:26.909Z,78.29
2023-05-17T08:11:55.830Z,78.13
2023-05-17T08:14:26.191Z,77.54
2023-05-17T08:16:54.970Z,77.20
2023-05-17T08:19:26.817Z,77.24
2023-05-17T08:21:56.388Z,76.59
2023-05-17T08:24:25.157Z,76.71
2023-05-17T08:26:54.817Z,76.87
2023-05-17T08:29:23.151Z,76.81
2023-05-17T08:31:52.742Z,76.97
2023-05-17T08:34:21.875Z,76.35
2023-05-17T08:36:53.777Z,76.02
2023-05-17T08:39:22.727Z,76.18
2023-05-17T08:41:51.797Z,76.46
2023-05-17T08:44:22.108Z,76.65
2023-05-17T08:46:54.047Z,76.36
2023-05-17T08:49:26.026Z,76.26
2023-05-17T08:51:57.106Z,76.27
2023-05-17T08:54:26.258Z,76.38
2023-05-17T08:57:00.100Z,76.63
2023-05-17T08:59:34.120Z,76.46
2023-05-17T09:02:03.901Z,76.92
2023-05-17T09:04:33.391Z,77.47
2023-05-17T09:07:03.533Z,77.79
2023-05-17T09:09:32.746Z,78.21
2023-05-17T09:12:02.862Z,78.33
2023-05-17T09:14:35.931Z,78.96
2023-05-17T09:17:04.796Z,79.02
2023-05-17T09:19:33.637Z,79.52
2023-05-17T09:22:06.246Z,80.08
2023-05-17T09:24:35.041Z,80.16
2023-05-17T09:27:06.122Z,80.78
2023-05-17T09:29:36.874Z,80.97
2023-05-17T09:32:18.012Z,81.79
2023-05-17T09:34:48.456Z,82.04
2023-05-17T09:37:20.309Z,82.80
2023-05-17T09:39:50.277Z,83.40
2023-05-17T09:42:19.222Z,84.03
2023-05-17T09:44:54.856Z,84.25
2023-05-17T09:47:25.872Z,84.83
2023-05-17T09:49:55.437Z,85.12
2023-05-17T09:52:27.153Z,85.26
2023-05-17T09:54:57.898Z,85.71
2023-05-17T09:57:28.803Z,85.75
2023-05-17T09:59:59.249Z,86.12
2023-05-17T10:02:30.288Z,86.46
2023-05-17T10:04:59.752Z,86.52
2023-05-17T10:07:30.703Z,87.02
2023-05-17T10:10:00.257Z,86.94
2023-05-17T10:12:31.171Z,87.07
2023-05-17T10:15:00.478Z,87.22
2023-05-17T10:17:30.280Z,87.09
2023-05-17T10:20:00.053Z,87.02
2023-05-17T10:22:30.596Z,86.99
2023-05-17T10:25:00.257Z,86.83
2023-05-17T10:27:29.461Z,86.80
2023-05-17T10:29:59.838Z,87.11
2023-05-17T10:32:30.506Z,86.82
2023-05-17T10:35:10.623Z,86.75
2023-05-17T10:37:43.467Z,86.80
2023-05-17T10:40:14.718Z,86.92
2023-05-17T10:42:46.145Z,87.03
2023-05-17T10:45:15.990Z,87.02
2023-05-17T10:47:46.370Z,86.93
2023-05-17T10:50:15.550Z,86.84
2023-05-17T10:52:50.239Z,86.95
2023-05-17T10:55:22.638Z,87.38
2023-05-17T10:58:13.555Z,87.26
2023-05-17T11:00:43.313Z,87.26
2023-05-17T11:03:17.344Z,87.22
2023-05-17T11:06:12.801Z,87.42
2023-05-17T11:09:09.770Z,87.20
2023-05-17T11:11:38.717Z,87.37
2023-05-17T11:14:08.810Z,87.29
2023-05-17T11:16:39.026Z,87.41
2023-05-17T11:19:10.287Z,87.24
2023-05-17T11:21:47.750Z,87.36
2023-05-17T11:24:27.293Z,87.29
2023-05-17T11:26:57.027Z,87.43
2023-05-17T11:29:30.275Z,87.55
2023-05-17T11:31:59.255Z,87.78
2023-05-17T11:34:29.162Z,87.50
2023-05-17T11:36:58.142Z,87.65
2023-05-17T11:39:28.421Z,87.98
2023-05-17T11:41:58.949Z,87.67
2023-05-17T11:44:31.946Z,88.00
2023-05-17T11:47:05.045Z,87.74
2023-05-17T11:49:36.900Z,87.79
2023-05-17T11:52:06.625Z,87.87
2023-05-17T11:54:43.292Z,87.98
2023-05-17T11:57:15.088Z,87.79
2023-05-17T11:59:44.691Z,88.04
2023-05-17T12:02:28.221Z,87.70
2023-05-17T12:04:57.592Z,87.75
2023-05-17T12:07:27.021Z,87.80
2023-05-17T12:09:57.508Z,87.64
2023-05-17T12:12:27.593Z,87.54
2023-05-17T12:14:59.046Z,87.58
2023-05-17T12:17:37.248Z,87.15
2023-05-17T12:20:10.295Z,87.02
2023-05-17T12:22:53.709Z,87.38
2023-05-17T12:25:25.953Z,87.22
2023-05-17T12:27:54.739Z,87.19
2023-05-17T12:30:24.428Z,86.81
2023-05-17T12:32:53.554Z,86.61
2023-05-17T12:35:22.758Z,86.69
2023-05-17T12:37:51.649Z,87.01
2023-05-17T12:40:20.594Z,87.01
2023-05-17T12:42:50.877Z,87.10
2023-05-17T12:45:19.797Z,87.04
2023-05-17T12:47:51.350Z,86.75
2023-05-17T12:50:27.739Z,86.99
2023-05-17T12:52:56.890Z,86.50
2023-05-17T12:55:26.422Z,86.13
2023-05-17T12:57:56.404Z,86.20
2023-05-17T13:00:25.587Z,86.38
2023-05-17T13:02:54.526Z,86.44
2023-05-17T13:05:23.844Z,86.07
2023-05-17T13:07:52.799Z,86.35
2023-05-17T13:10:23.206Z,86.09
2023-05-17T13:13:00.680Z,85.93
2023-05-17T13:15:30.544Z,85.83
2023-05-17T13:18:00.505Z,85.14
2023-05-17T13:20:29.740Z,85.15
2023-05-17T13:22:58.820Z,84.94
2023-05-17T13:25:27.721Z,84.53
2023-05-17T13:27:57.002Z,84.18
2023-05-17T13:30:27.391Z,84.00
2023-05-17T13:32:56.666Z,84.37
2023-05-17T13:35:25.596Z,84.17
2023-05-17T13:37:54.827Z,84.20
2023-05-17T13:40:23.879Z,84.02
2023-05-17T13:42:53.072Z,83.87
2023-05-17T13:45:22.030Z,83.78
2023-05-17T13:47:52.182Z,83.53
2023-05-17T13:50:24.335Z,83.20
2023-05-17T13:52:53.186Z,83.62
2023-05-17T13:55:22.160Z,82.88
2023-05-17T13:57:51.195Z,83.37
2023-05-17T14:00:20.723Z,82.86
2023-05-17T14:02:49.714Z,82.90
2023-05-17T14:05:20.473Z,82.85
2023-05-17T14:07:49.437Z,82.63
2023-05-17T14:10:18.610Z,82.65
2023-05-17T14:12:48.095Z,82.21
2023-05-17T14:15:17.452Z,82.46
2023-05-17T14:17:46.567Z,82.67
2023-05-17T14:20:15.688Z,82.93
2023-05-17T14:22:46.436Z,82.20
2023-05-17T14:25:15.345Z,82.47
2023-05-17T14:27:44.217Z,82.24
2023-05-17T14:30:14.785Z,82.09
2023-05-17T14:32:43.889Z,81.60
2023-05-17T14:35:12.857Z,81.86
2023-05-17T14:37:41.691Z,81.81
2023-05-17T14:40:13.038Z,81.98
2023-05-17T14:42:42.183Z,82.23
2023-05-17T14:45:11.165Z,82.34
2023-05-17T14:47:40.110Z,82.76
2023-05-17T14:50:11.404Z,82.56
2023-05-17T14:52:40.442Z,82.62
2023-05-17T14:55:10.222Z,82.86
2023-05-17T14:57:42.364Z,82.91
2023-05-17T15:00:12.390Z,83.07
2023-05-17T15:02:41.368Z,83.19
2023-05-17T15:05:11.183Z,82.94
2023-05-17T15:07:40.197Z,82.92
2023-05-17T15:10:10.085Z,82.83
2023-05-17T15:12:40.407Z,82.95
2023-05-17T15:15:10.509Z,83.12
2023-05-17T15:17:39.442Z,82.91
2023-05-17T15:20:12.140Z,82.70
2023-05-17T15:22:40.960Z,82.79
2023-05-17T15:25:10.072Z,82.98
2023-05-17T15:27:38.883Z,82.65
2023-05-17T15:30:12.605Z,82.56
2023-05-17T15:32:42.712Z,82.38
2023-05-17T15:35:11.746Z,82.27
2023-05-17T15:37:41.183Z,82.31
2023-05-17T15:40:11.424Z,82.27
2023-05-17T15:42:41.194Z,81.79
2023-05-17T15:45:12.139Z,81.75
2023-05-17T15:47:43.552Z,81.78
2023-05-17T15:50:13.300Z,81.25
2023-05-17T15:52:42.252Z,81.38
2023-05-17T15:55:12.849Z,81.17
2023-05-17T15:57:42.732Z,80.95
2023-05-17T16:00:14.289Z,80.97
2023-05-17T16:02:43.320Z,80.72
2023-05-17T16:05:12.152Z,80.55
2023-05-17T16:07:41.185Z,80.18
2023-05-17T16:10:11.480Z,80.30
2023-05-17T16:12:40.404Z,80.21
2023-05-17T16:15:10.551Z,80.35
2023-05-17T16:17:40.933Z,80.08
2023-05-17T16:20:10.619Z,80.18
2023-05-17T16:22:45.242Z,80.01
2023-05-17T16:25:16.991Z,79.48
2023-05-17T16:27:49.665Z,79.34
2023-05-17T16:30:19.255Z,79.31
2023-05-17T16:32:50.083Z,79.18
2023-05-17T16:35:22.451Z,79.12
2023-05-17T16:37:51.694Z,78.75
2023-05-17T16:40:20.562Z,78.97
2023-05-17T16:42:49.636Z,78.83
2023-05-17T16:45:18.638Z,78.83
2023-05-17T16:47:48.913Z,79.04
2023-05-17T16:50:17.779Z,79.07
2023-05-17T16:52:46.569Z,78.91
2023-05-17T16:55:15.391Z,78.89
2023-05-17T16:57:44.370Z,78.86
2023-05-17T17:00:14.336Z,78.58
2023-05-17T17:02:43.346Z,78.70
2023-05-17T17:05:13.662Z,78.89
2023-05-17T17:07:42.824Z,78.93
2023-05-17T17:10:12.397Z,78.98
2023-05-17T17:12:40.986Z,78.66
2023-05-17T17:15:11.012Z,78.73
2023-05-17T17:17:40.244Z,78.63
2023-05-17T17:20:10.390Z,78.36
2023-05-17T17:22:41.681Z,78.27
2023-05-17T17:25:11.601Z,78.08
2023-05-17T17:27:40.403Z,77.98
2023-05-17T17:30:10.147Z,77.58
2023-05-17T17:32:39.344Z,77.54
2023-05-17T17:35:09.561Z,77.70
2023-05-17T17:37:38.808Z,77.50
2023-05-17T17:40:10.991Z,77.27
2023-05-17T17:42:40.822Z,77.14
2023-05-17T17:45:09.889Z,77.17
2023-05-17T17:47:38.833Z,77.19
2023-05-17T17:50:12.100Z,77.03
2023-05-17T17:52:41.350Z,77.10
2023-05-17T17:55:13.581Z,76.97
2023-05-17T17:57:43.048Z,76.79
2023-05-17T18:00:13.295Z,76.95
2023-05-17T18:02:42.279Z,76.90
2023-05-17T18:05:11.922Z,76.83
2023-05-17T18:07:40.511Z,76.90
2023-05-17T18:10:09.936Z,77.31
2023-05-17T18:12:40.354Z,76.98
2023-05-17T18:15:09.784Z,76.54
2023-05-17T18:17:38.636Z,76.97
2023-05-17T18:20:08.939Z,77.05
2023-05-17T18:22:38.184Z,76.94
2023-05-17T18:25:07.631Z,76.62
2023-05-17T18:27:36.976Z,76.92
2023-05-17T18:30:08.232Z,76.92
2023-05-17T18:32:37.236Z,76.98
2023-05-17T18:35:06.737Z,76.87
2023-05-17T18:37:36.021Z,77.00
2023-05-17T18:40:05.530Z,76.93
2023-05-17T18:42:34.439Z,76.90
2023-05-17T18:45:03.304Z,76.91
2023-05-17T18:47:34.873Z,76.65
2023-05-17T18:50:03.865Z,76.66
2023-05-17T18:52:32.623Z,76.63
2023-05-17T18:55:01.539Z,76.50
2023-05-17T18:57:32.167Z,76.47
2023-05-17T19:00:01.547Z,76.30
2023-05-17T19:02:30.770Z,76.01
2023-05-17T19:05:01.268Z,75.95
2023-05-17T19:07:30.129Z,76.04
2023-05-17T19:09:58.982Z,75.72
2023-05-17T19:12:30.340Z,75.75
2023-05-17T19:14:59.251Z,75.65
2023-05-17T19:17:28.089Z,75.51
2023-05-17T19:19:57.363Z,75.56
2023-05-17T19:22:27.579Z,75.64
2023-05-17T19:24:56.452Z,75.68
2023-05-17T19:27:25.285Z,75.65
2023-05-17T19:29:54.222Z,75.64
2023-05-17T19:32:23.075Z,75.72
2023-05-17T19:34:52.003Z,75.65
2023-05-17T19:37:20.750Z,75.68
2023-05-17T19:39:51.009Z,75.80
2023-05-17T19:42:19.879Z,75.87
2023-05-17T19:44:48.621Z,75.65
2023-05-17T19:47:17.431Z,75.76
2023-05-17T19:49:46.323Z,75.72
2023-05-17T19:52:15.374Z,75.74
2023-05-17T19:54:44.212Z,75.43
2023-05-17T19:57:14.573Z,75.53
2023-05-17T19:59:43.424Z,75.37
2023-05-17T20:02:12.316Z,75.51
2023-05-17T20:04:41.411Z,75.64
2023-05-17T20:07:10.348Z,75.70
2023-05-17T20:09:40.005Z,75.17
2023-05-17T20:12:08.924Z,75.44
2023-05-17T20:14:39.089Z,75.35
2023-05-17T20:17:08.021Z,75.34
2023-05-17T20:19:38.625Z,75.20
2023-05-17T20:22:08.165Z,75.18
2023-05-17T20:24:37.025Z,75.03
2023-05-17T20:27:06.101Z,74.99
2023-05-17T20:29:34.936Z,74.84
2023-05-17T20:32:05.681Z,74.84
2023-05-17T20:34:34.843Z,74.74
2023-05-17T20:37:03.710Z,74.62
2023-05-17T20:39:32.646Z,74.75
2023-05-17T20:42:02.684Z,74.69
2023-05-17T20:44:33.434Z,74.69
2023-05-17T20:47:02.944Z,74.79
2023-05-17T20:49:33.278Z,74.53
2023-05-17T20:52:03.675Z,74.54
2023-05-17T20:54:32.748Z,74.51
2023-05-17T20:57:02.429Z,74.64
2023-05-17T20:59:31.644Z,74.51
2023-05-17T21:02:00.519Z,74.72
2023-05-17T21:04:29.416Z,74.32
2023-05-17T21:06:59.843Z,74.32
2023-05-17T21:09:28.776Z,74.30
2023-05-17T21:11:57.570Z,74.20
2023-05-17T21:14:26.506Z,74.46
2023-05-17T21:16:56.268Z,74.46
2023-05-17T21:19:25.339Z,74.48
2023-05-17T21:21:54.297Z,74.60
2023-05-17T21:24:24.567Z,74.45
2023-05-17T21:26:53.818Z,74.70
2023-05-17T21:29:22.592Z,74.53
2023-05-17T21:31:51.452Z,74.76
2023-05-17T21:34:20.256Z,74.78
2023-05-17T21:36:49.153Z,74.77
2023-05-17T21:39:17.921Z,74.51
2023-05-17T21:41:49.511Z,74.80
2023-05-17T21:44:18.313Z,74.57
2023-05-17T21:46:47.083Z,74.50
2023-05-17T21:49:16.346Z,74.89
2023-05-17T21:51:46.397Z,74.61
2023-05-17T21:54:15.401Z,74.71
2023-05-17T21:56:44.148Z,74.70
2023-05-17T21:59:14.333Z,74.67
2023-05-17T22:01:43.208Z,74.52
2023-05-17T22:04:12.321Z,74.40
2023-05-17T22:06:41.084Z,74.88
2023-05-17T22:09:09.971Z,74.94
2023-05-17T22:11:41.947Z,74.87
2023-05-17T22:14:11.821Z,74.87
2023-05-17T22:16:42.078Z,75.06
2023-05-17T22:19:10.920Z,74.85
2023-05-17T22:21:39.748Z,75.08
2023-05-17T22:24:09.192Z,74.95
2023-05-17T22:26:38.023Z,74.84
2023-05-17T22:29:06.878Z,74.92
2023-05-17T22:31:38.277Z,74.78
2023-05-17T22:34:08.662Z,74.83
2023-05-17T22:36:37.575Z,74.98
2023-05-17T22:39:06.475Z,74.78
2023-05-17T22:41:35.360Z,74.63
2023-05-17T22:44:04.194Z,74.66
2023-05-17T22:46:33.525Z,74.59
2023-05-17T22:49:02.522Z,74.29
2023-05-17T22:51:35.285Z,74.61
2023-05-17T22:54:04.472Z,74.74
2023-05-17T22:56:33.445Z,74.47
2023-05-17T22:59:02.256Z,74.75
2023-05-17T23:01:31.083Z,74.66
2023-05-17T23:04:00.180Z,74.70
2023-05-17T23:06:32.699Z,74.49
2023-05-17T23:09:05.383Z,74.49
2023-05-17T23:11:35.644Z,74.59
2023-05-17T23:14:04.485Z,74.60
2023-05-17T23:16:36.234Z,74.87
2023-05-17T23:19:05.276Z,74.75
2023-05-17T23:21:36.541Z,74.90
2023-05-17T23:24:08.194Z,74.99
2023-05-17T23:26:37.168Z,75.08
2023-05-17T23:29:05.935Z,75.34
2023-05-17T23:31:35.260Z,75.16
2023-05-17T23:34:04.583Z,75.22
2023-05-17T23:36:33.380Z,75.03
2023-05-17T23:39:02.208Z,74.95
2023-05-17T23:41:32.604Z,75.11
2023-05-17T23:44:01.859Z,75.14
2023-05-17T23:46:30.783Z,75.20
2023-05-17T23:48:59.724Z,75.29
2023-05-17T23:51:28.621Z,75.28
2023-05-17T23:53:57.551Z,75.18
2023-05-17T23:56:26.848Z,75.12
2023-05-17T23:58:57.098Z,75.29
